Dedham, Massachusetts
Current Conditions -  °F | °C
As of 5:36 AM on Thursday 23 Oct 2014 (Local Time) from KOWD Reporting Station
Light Rain Light Rain  
Wind Chill: 51°   Ceiling: 1600
Heat Index: 51°   Visibility: 9mi
Dew Point: 49°   Wind: 13mph
Humidity: 92%   Direction: 10°N
Pressure: 29.68"   Gusts: 25mph
Location:  42.25°N, 71.17°W
Report Text: KOWD 230936Z AUTO 01011G22KT 9SM -RA BKN016 BKN025 OVC075 11/09 A2968 RMK AO2 PK WND 01031/0912 P0007 T01060094
Loading
Personal Weather Stations






























Interactive Weather Map New forecast layout! Learn more

10-Day Weather Forecast

Advertisements
Track Severe Weather on mobile